sensor_id;sensor_type;location;lat;lon;timestamp;P1;durP1;ratioP1;P2;durP2;ratioP2
73321;SDS011;61549;37.044;22.128;2023-03-17T00:01:45;20.58;;;10.75;;
73321;SDS011;61549;37.044;22.128;2023-03-17T00:04:15;18.58;;;10.95;;
73321;SDS011;61549;37.044;22.128;2023-03-17T00:06:43;18.40;;;10.98;;
73321;SDS011;61549;37.044;22.128;2023-03-17T00:09:14;19.02;;;11.05;;
73321;SDS011;61549;37.044;22.128;2023-03-17T00:11:42;20.65;;;11.48;;
73321;SDS011;61549;37.044;22.128;2023-03-17T00:14:09;16.88;;;10.63;;
73321;SDS011;61549;37.044;22.128;2023-03-17T00:16:38;20.40;;;10.88;;
73321;SDS011;61549;37.044;22.128;2023-03-17T00:19:09;18.13;;;11.40;;
73321;SDS011;61549;37.044;22.128;2023-03-17T00:21:44;19.73;;;11.20;;
73321;SDS011;61549;37.044;22.128;2023-03-17T00:24:11;18.63;;;10.32;;
73321;SDS011;61549;37.044;22.128;2023-03-17T00:26:37;19.77;;;10.13;;
73321;SDS011;61549;37.044;22.128;2023-03-17T00:29:05;19.33;;;9.80;;
73321;SDS011;61549;37.044;22.128;2023-03-17T00:31:32;19.58;;;9.65;;
73321;SDS011;61549;37.044;22.128;2023-03-17T00:33:58;17.05;;;8.77;;
73321;SDS011;61549;37.044;22.128;2023-03-17T00:36:26;15.40;;;8.95;;
73321;SDS011;61549;37.044;22.128;2023-03-17T00:38:53;14.82;;;8.85;;
73321;SDS011;61549;37.044;22.128;2023-03-17T00:41:20;16.58;;;9.57;;
73321;SDS011;61549;37.044;22.128;2023-03-17T00:43:46;15.93;;;9.27;;
73321;SDS011;61549;37.044;22.128;2023-03-17T00:46:13;21.95;;;14.00;;
73321;SDS011;61549;37.044;22.128;2023-03-17T00:48:41;21.42;;;13.48;;
73321;SDS011;61549;37.044;22.128;2023-03-17T00:51:07;17.17;;;10.02;;
73321;SDS011;61549;37.044;22.128;2023-03-17T00:53:34;25.20;;;13.63;;
73321;SDS011;61549;37.044;22.128;2023-03-17T00:56:00;18.08;;;11.23;;
73321;SDS011;61549;37.044;22.128;2023-03-17T00:58:27;19.02;;;11.55;;
73321;SDS011;61549;37.044;22.128;2023-03-17T01:00:58;27.98;;;16.25;;
73321;SDS011;61549;37.044;22.128;2023-03-17T01:03:25;20.65;;;12.68;;
73321;SDS011;61549;37.044;22.128;2023-03-17T01:05:52;20.92;;;12.70;;
73321;SDS011;61549;37.044;22.128;2023-03-17T01:08:21;23.05;;;13.65;;
73321;SDS011;61549;37.044;22.128;2023-03-17T01:13:38;25.98;;;15.60;;
73321;SDS011;61549;37.044;22.128;2023-03-17T01:16:07;24.23;;;13.57;;
73321;SDS011;61549;37.044;22.128;2023-03-17T01:18:34;23.10;;;13.02;;
73321;SDS011;61549;37.044;22.128;2023-03-17T01:21:00;25.60;;;14.15;;
73321;SDS011;61549;37.044;22.128;2023-03-17T01:23:26;22.48;;;12.25;;
73321;SDS011;61549;37.044;22.128;2023-03-17T01:25:52;22.13;;;12.50;;
73321;SDS011;61549;37.044;22.128;2023-03-17T01:28:25;21.17;;;11.50;;
73321;SDS011;61549;37.044;22.128;2023-03-17T01:30:52;20.17;;;12.13;;
73321;SDS011;61549;37.044;22.128;2023-03-17T01:33:18;19.63;;;11.25;;
73321;SDS011;61549;37.044;22.128;2023-03-17T01:35:43;17.90;;;11.18;;
73321;SDS011;61549;37.044;22.128;2023-03-17T01:38:12;18.35;;;11.13;;
73321;SDS011;61549;37.044;22.128;2023-03-17T01:40:43;19.17;;;12.48;;
73321;SDS011;61549;37.044;22.128;2023-03-17T01:53:59;14.07;;;8.27;;
73321;SDS011;61549;37.044;22.128;2023-03-17T01:56:27;14.48;;;7.88;;
73321;SDS011;61549;37.044;22.128;2023-03-17T01:58:54;11.18;;;6.63;;
73321;SDS011;61549;37.044;22.128;2023-03-17T02:01:25;30.33;;;17.25;;
73321;SDS011;61549;37.044;22.128;2023-03-17T02:03:57;18.40;;;10.00;;
73321;SDS011;61549;37.044;22.128;2023-03-17T02:06:24;10.43;;;6.63;;
73321;SDS011;61549;37.044;22.128;2023-03-17T02:08:50;10.60;;;6.13;;
73321;SDS011;61549;37.044;22.128;2023-03-17T02:13:48;6.88;;;4.65;;
73321;SDS011;61549;37.044;22.128;2023-03-17T02:16:14;4.90;;;3.25;;
73321;SDS011;61549;37.044;22.128;2023-03-17T02:18:40;3.47;;;2.20;;
73321;SDS011;61549;37.044;22.128;2023-03-17T02:21:25;3.40;;;2.15;;
73321;SDS011;61549;37.044;22.128;2023-03-17T02:24:02;3.50;;;2.15;;
73321;SDS011;61549;37.044;22.128;2023-03-17T02:26:32;4.63;;;2.10;;
73321;SDS011;61549;37.044;22.128;2023-03-17T02:28:59;4.38;;;2.03;;
73321;SDS011;61549;37.044;22.128;2023-03-17T02:31:26;5.38;;;2.75;;
73321;SDS011;61549;37.044;22.128;2023-03-17T02:33:52;4.55;;;2.20;;
73321;SDS011;61549;37.044;22.128;2023-03-17T02:36:18;3.58;;;1.85;;
73321;SDS011;61549;37.044;22.128;2023-03-17T02:38:45;4.72;;;1.90;;
73321;SDS011;61549;37.044;22.128;2023-03-17T02:41:12;8.18;;;4.00;;
73321;SDS011;61549;37.044;22.128;2023-03-17T02:43:38;24.40;;;12.48;;
73321;SDS011;61549;37.044;22.128;2023-03-17T02:46:05;31.67;;;17.05;;
73321;SDS011;61549;37.044;22.128;2023-03-17T02:48:31;38.47;;;19.75;;
73321;SDS011;61549;37.044;22.128;2023-03-17T02:51:00;36.13;;;18.85;;
73321;SDS011;61549;37.044;22.128;2023-03-17T02:53:26;40.53;;;21.08;;
73321;SDS011;61549;37.044;22.128;2023-03-17T02:55:52;40.63;;;20.25;;
73321;SDS011;61549;37.044;22.128;2023-03-17T02:58:18;36.08;;;18.95;;
73321;SDS011;61549;37.044;22.128;2023-03-17T03:00:44;36.97;;;18.42;;
73321;SDS011;61549;37.044;22.128;2023-03-17T03:03:10;30.88;;;16.50;;
73321;SDS011;61549;37.044;22.128;2023-03-17T03:05:36;33.40;;;16.77;;
73321;SDS011;61549;37.044;22.128;2023-03-17T03:08:01;35.03;;;17.60;;
73321;SDS011;61549;37.044;22.128;2023-03-17T03:10:27;37.55;;;18.17;;
73321;SDS011;61549;37.044;22.128;2023-03-17T03:12:53;42.38;;;19.40;;
73321;SDS011;61549;37.044;22.128;2023-03-17T03:15:19;38.55;;;18.33;;
73321;SDS011;61549;37.044;22.128;2023-03-17T03:17:45;29.73;;;15.40;;
73321;SDS011;61549;37.044;22.128;2023-03-17T03:20:11;33.08;;;15.27;;
73321;SDS011;61549;37.044;22.128;2023-03-17T03:22:37;28.77;;;14.55;;
73321;SDS011;61549;37.044;22.128;2023-03-17T03:25:03;31.60;;;16.13;;
73321;SDS011;61549;37.044;22.128;2023-03-17T03:27:31;32.55;;;15.05;;
73321;SDS011;61549;37.044;22.128;2023-03-17T03:29:57;29.05;;;14.82;;
73321;SDS011;61549;37.044;22.128;2023-03-17T03:32:23;30.05;;;14.90;;
73321;SDS011;61549;37.044;22.128;2023-03-17T03:34:49;28.33;;;13.40;;
73321;SDS011;61549;37.044;22.128;2023-03-17T03:37:15;27.08;;;12.77;;
73321;SDS011;61549;37.044;22.128;2023-03-17T03:39:40;24.73;;;12.07;;
73321;SDS011;61549;37.044;22.128;2023-03-17T03:42:06;24.17;;;11.52;;
73321;SDS011;61549;37.044;22.128;2023-03-17T03:44:32;20.10;;;11.27;;
73321;SDS011;61549;37.044;22.128;2023-03-17T03:46:58;20.20;;;9.80;;
73321;SDS011;61549;37.044;22.128;2023-03-17T03:49:24;18.42;;;9.52;;
73321;SDS011;61549;37.044;22.128;2023-03-17T03:51:50;16.00;;;8.93;;
73321;SDS011;61549;37.044;22.128;2023-03-17T03:54:16;17.25;;;7.95;;
73321;SDS011;61549;37.044;22.128;2023-03-17T03:56:41;15.15;;;8.02;;
73321;SDS011;61549;37.044;22.128;2023-03-17T03:59:07;14.00;;;7.65;;
73321;SDS011;61549;37.044;22.128;2023-03-17T04:01:33;12.73;;;6.80;;
73321;SDS011;61549;37.044;22.128;2023-03-17T04:04:00;11.80;;;6.22;;
73321;SDS011;61549;37.044;22.128;2023-03-17T04:06:26;10.57;;;6.10;;
73321;SDS011;61549;37.044;22.128;2023-03-17T04:08:52;9.77;;;5.80;;
73321;SDS011;61549;37.044;22.128;2023-03-17T04:11:17;8.70;;;4.53;;
73321;SDS011;61549;37.044;22.128;2023-03-17T04:13:43;7.60;;;4.40;;
73321;SDS011;61549;37.044;22.128;2023-03-17T04:16:09;7.57;;;4.57;;
73321;SDS011;61549;37.044;22.128;2023-03-17T04:18:35;8.15;;;4.28;;
73321;SDS011;61549;37.044;22.128;2023-03-17T04:21:00;6.40;;;3.63;;
73321;SDS011;61549;37.044;22.128;2023-03-17T04:23:26;6.97;;;3.47;;
73321;SDS011;61549;37.044;22.128;2023-03-17T04:28:23;4.43;;;2.50;;
73321;SDS011;61549;37.044;22.128;2023-03-17T04:30:48;4.05;;;2.50;;
73321;SDS011;61549;37.044;22.128;2023-03-17T04:33:15;5.03;;;3.10;;
73321;SDS011;61549;37.044;22.128;2023-03-17T04:35:41;7.20;;;3.67;;
73321;SDS011;61549;37.044;22.128;2023-03-17T04:38:07;6.65;;;2.45;;
73321;SDS011;61549;37.044;22.128;2023-03-17T04:40:35;4.13;;;2.10;;
73321;SDS011;61549;37.044;22.128;2023-03-17T04:43:01;7.45;;;3.70;;
73321;SDS011;61549;37.044;22.128;2023-03-17T04:45:27;4.53;;;1.90;;
73321;SDS011;61549;37.044;22.128;2023-03-17T04:47:53;3.35;;;1.60;;
73321;SDS011;61549;37.044;22.128;2023-03-17T04:50:19;3.15;;;1.50;;
73321;SDS011;61549;37.044;22.128;2023-03-17T04:52:45;2.00;;;1.15;;
73321;SDS011;61549;37.044;22.128;2023-03-17T04:55:11;1.30;;;1.10;;
73321;SDS011;61549;37.044;22.128;2023-03-17T04:57:37;1.58;;;1.10;;
73321;SDS011;61549;37.044;22.128;2023-03-17T05:00:04;2.58;;;1.23;;
73321;SDS011;61549;37.044;22.128;2023-03-17T05:02:31;2.20;;;1.13;;
73321;SDS011;61549;37.044;22.128;2023-03-17T05:04:57;3.33;;;1.70;;
73321;SDS011;61549;37.044;22.128;2023-03-17T05:07:23;3.25;;;1.60;;
73321;SDS011;61549;37.044;22.128;2023-03-17T05:09:51;2.30;;;1.60;;
73321;SDS011;61549;37.044;22.128;2023-03-17T05:12:17;2.20;;;1.60;;
73321;SDS011;61549;37.044;22.128;2023-03-17T05:14:44;2.08;;;1.40;;
73321;SDS011;61549;37.044;22.128;2023-03-17T05:17:10;2.05;;;1.40;;
73321;SDS011;61549;37.044;22.128;2023-03-17T05:19:36;3.03;;;2.03;;
73321;SDS011;61549;37.044;22.128;2023-03-17T05:22:02;2.00;;;1.80;;
73321;SDS011;61549;37.044;22.128;2023-03-17T05:24:28;2.60;;;1.35;;
73321;SDS011;61549;37.044;22.128;2023-03-17T05:26:53;2.05;;;1.40;;
73321;SDS011;61549;37.044;22.128;2023-03-17T05:29:19;1.70;;;1.60;;
73321;SDS011;61549;37.044;22.128;2023-03-17T05:31:45;2.38;;;1.60;;
73321;SDS011;61549;37.044;22.128;2023-03-17T05:34:12;1.83;;;1.58;;
73321;SDS011;61549;37.044;22.128;2023-03-17T05:36:39;2.08;;;1.77;;
73321;SDS011;61549;37.044;22.128;2023-03-17T05:39:05;1.70;;;1.50;;
73321;SDS011;61549;37.044;22.128;2023-03-17T05:41:31;2.28;;;1.58;;
73321;SDS011;61549;37.044;22.128;2023-03-17T05:43:58;0.82;;;0.80;;
73321;SDS011;61549;37.044;22.128;2023-03-17T05:46:23;1.35;;;0.90;;
73321;SDS011;61549;37.044;22.128;2023-03-17T05:48:50;2.15;;;1.17;;
73321;SDS011;61549;37.044;22.128;2023-03-17T05:51:19;1.65;;;1.20;;
73321;SDS011;61549;37.044;22.128;2023-03-17T05:53:46;1.27;;;1.10;;
73321;SDS011;61549;37.044;22.128;2023-03-17T05:56:13;1.10;;;0.90;;
73321;SDS011;61549;37.044;22.128;2023-03-17T05:58:39;2.63;;;0.90;;
73321;SDS011;61549;37.044;22.128;2023-03-17T06:01:06;0.80;;;0.80;;
73321;SDS011;61549;37.044;22.128;2023-03-17T06:06:03;1.15;;;0.80;;
73321;SDS011;61549;37.044;22.128;2023-03-17T06:08:29;3.30;;;1.15;;
73321;SDS011;61549;37.044;22.128;2023-03-17T06:10:55;1.30;;;0.60;;
73321;SDS011;61549;37.044;22.128;2023-03-17T06:13:21;0.40;;;0.40;;
73321;SDS011;61549;37.044;22.128;2023-03-17T06:15:47;1.20;;;0.30;;
73321;SDS011;61549;37.044;22.128;2023-03-17T06:18:16;6.00;;;0.90;;
73321;SDS011;61549;37.044;22.128;2023-03-17T06:20:43;3.20;;;2.58;;
73321;SDS011;61549;37.044;22.128;2023-03-17T06:23:09;12.32;;;7.05;;
73321;SDS011;61549;37.044;22.128;2023-03-17T06:25:35;14.60;;;8.52;;
73321;SDS011;61549;37.044;22.128;2023-03-17T06:28:01;14.77;;;7.70;;
73321;SDS011;61549;37.044;22.128;2023-03-17T06:30:31;13.57;;;7.57;;
73321;SDS011;61549;37.044;22.128;2023-03-17T06:32:58;14.18;;;8.35;;
73321;SDS011;61549;37.044;22.128;2023-03-17T06:35:24;17.38;;;9.93;;
73321;SDS011;61549;37.044;22.128;2023-03-17T06:37:53;20.08;;;12.95;;
73321;SDS011;61549;37.044;22.128;2023-03-17T06:40:19;19.85;;;11.23;;
73321;SDS011;61549;37.044;22.128;2023-03-17T06:42:45;24.15;;;14.52;;
73321;SDS011;61549;37.044;22.128;2023-03-17T06:45:11;21.92;;;11.95;;
73321;SDS011;61549;37.044;22.128;2023-03-17T06:47:37;18.08;;;11.20;;
73321;SDS011;61549;37.044;22.128;2023-03-17T06:50:04;15.00;;;9.70;;
73321;SDS011;61549;37.044;22.128;2023-03-17T06:52:32;13.60;;;8.70;;
73321;SDS011;61549;37.044;22.128;2023-03-17T06:54:58;14.68;;;9.05;;
73321;SDS011;61549;37.044;22.128;2023-03-17T06:57:26;15.52;;;9.93;;
73321;SDS011;61549;37.044;22.128;2023-03-17T06:59:52;15.05;;;9.00;;
73321;SDS011;61549;37.044;22.128;2023-03-17T07:02:18;14.45;;;8.82;;
73321;SDS011;61549;37.044;22.128;2023-03-17T07:04:44;15.15;;;9.00;;
73321;SDS011;61549;37.044;22.128;2023-03-17T07:07:10;15.48;;;8.70;;
73321;SDS011;61549;37.044;22.128;2023-03-17T07:09:36;17.65;;;9.80;;
73321;SDS011;61549;37.044;22.128;2023-03-17T07:12:04;15.18;;;9.68;;
73321;SDS011;61549;37.044;22.128;2023-03-17T07:14:31;15.00;;;8.77;;
73321;SDS011;61549;37.044;22.128;2023-03-17T07:16:58;15.32;;;8.73;;
73321;SDS011;61549;37.044;22.128;2023-03-17T07:19:24;14.35;;;8.70;;
73321;SDS011;61549;37.044;22.128;2023-03-17T07:21:51;15.20;;;8.25;;
73321;SDS011;61549;37.044;22.128;2023-03-17T07:24:19;17.20;;;9.43;;
73321;SDS011;61549;37.044;22.128;2023-03-17T07:26:45;14.70;;;7.78;;
73321;SDS011;61549;37.044;22.128;2023-03-17T07:29:17;14.50;;;7.85;;
73321;SDS011;61549;37.044;22.128;2023-03-17T07:31:43;14.52;;;7.75;;
73321;SDS011;61549;37.044;22.128;2023-03-17T07:34:09;13.57;;;7.10;;
73321;SDS011;61549;37.044;22.128;2023-03-17T07:36:36;15.88;;;8.32;;
73321;SDS011;61549;37.044;22.128;2023-03-17T07:39:03;14.20;;;8.10;;
73321;SDS011;61549;37.044;22.128;2023-03-17T07:41:29;11.57;;;6.65;;
73321;SDS011;61549;37.044;22.128;2023-03-17T07:43:55;11.52;;;6.03;;
73321;SDS011;61549;37.044;22.128;2023-03-17T07:46:21;11.40;;;6.47;;
73321;SDS011;61549;37.044;22.128;2023-03-17T07:48:47;11.95;;;6.60;;
73321;SDS011;61549;37.044;22.128;2023-03-17T07:51:14;13.45;;;7.90;;
73321;SDS011;61549;37.044;22.128;2023-03-17T07:53:43;20.83;;;10.60;;
73321;SDS011;61549;37.044;22.128;2023-03-17T07:56:10;8.50;;;5.28;;
73321;SDS011;61549;37.044;22.128;2023-03-17T07:58:36;9.52;;;5.90;;
73321;SDS011;61549;37.044;22.128;2023-03-17T08:01:02;7.85;;;4.90;;
73321;SDS011;61549;37.044;22.128;2023-03-17T08:03:29;6.68;;;4.28;;
73321;SDS011;61549;37.044;22.128;2023-03-17T08:05:55;8.07;;;4.25;;
73321;SDS011;61549;37.044;22.128;2023-03-17T08:08:23;5.47;;;3.70;;
73321;SDS011;61549;37.044;22.128;2023-03-17T08:10:50;2.90;;;1.58;;
73321;SDS011;61549;37.044;22.128;2023-03-17T08:13:16;2.17;;;1.30;;
73321;SDS011;61549;37.044;22.128;2023-03-17T08:15:43;2.80;;;1.63;;
73321;SDS011;61549;37.044;22.128;2023-03-17T08:18:09;2.05;;;1.17;;
73321;SDS011;61549;37.044;22.128;2023-03-17T08:20:35;3.08;;;2.20;;
73321;SDS011;61549;37.044;22.128;2023-03-17T08:23:02;1.90;;;1.10;;
73321;SDS011;61549;37.044;22.128;2023-03-17T08:25:28;1.42;;;0.80;;
73321;SDS011;61549;37.044;22.128;2023-03-17T08:27:53;2.08;;;1.02;;
73321;SDS011;61549;37.044;22.128;2023-03-17T08:30:20;1.60;;;1.00;;
73321;SDS011;61549;37.044;22.128;2023-03-17T08:32:47;2.30;;;1.70;;
73321;SDS011;61549;37.044;22.128;2023-03-17T08:35:14;3.08;;;2.20;;
73321;SDS011;61549;37.044;22.128;2023-03-17T08:37:41;3.05;;;1.95;;
73321;SDS011;61549;37.044;22.128;2023-03-17T08:40:09;4.80;;;3.00;;
73321;SDS011;61549;37.044;22.128;2023-03-17T08:42:36;6.70;;;5.18;;
73321;SDS011;61549;37.044;22.128;2023-03-17T08:45:04;4.78;;;4.13;;
73321;SDS011;61549;37.044;22.128;2023-03-17T08:47:34;3.00;;;2.67;;
73321;SDS011;61549;37.044;22.128;2023-03-17T08:50:00;4.43;;;3.13;;
73321;SDS011;61549;37.044;22.128;2023-03-17T08:52:26;6.97;;;5.72;;
73321;SDS011;61549;37.044;22.128;2023-03-17T08:54:53;6.13;;;3.97;;
73321;SDS011;61549;37.044;22.128;2023-03-17T08:57:19;6.03;;;3.85;;
73321;SDS011;61549;37.044;22.128;2023-03-17T08:59:47;5.38;;;3.83;;
73321;SDS011;61549;37.044;22.128;2023-03-17T09:02:13;6.40;;;4.82;;
73321;SDS011;61549;37.044;22.128;2023-03-17T09:04:47;4.53;;;3.80;;
73321;SDS011;61549;37.044;22.128;2023-03-17T09:07:13;2.97;;;2.40;;
73321;SDS011;61549;37.044;22.128;2023-03-17T09:09:49;1.50;;;1.38;;
73321;SDS011;61549;37.044;22.128;2023-03-17T09:12:17;1.70;;;1.30;;
73321;SDS011;61549;37.044;22.128;2023-03-17T09:14:43;5.15;;;4.13;;
73321;SDS011;61549;37.044;22.128;2023-03-17T09:17:09;14.90;;;11.27;;
73321;SDS011;61549;37.044;22.128;2023-03-17T09:19:37;10.93;;;8.50;;
73321;SDS011;61549;37.044;22.128;2023-03-17T09:22:04;8.20;;;6.88;;
73321;SDS011;61549;37.044;22.128;2023-03-17T09:24:30;2.72;;;2.15;;
73321;SDS011;61549;37.044;22.128;2023-03-17T09:26:56;3.50;;;3.20;;
73321;SDS011;61549;37.044;22.128;2023-03-17T09:29:24;4.70;;;3.50;;
73321;SDS011;61549;37.044;22.128;2023-03-17T09:31:50;1.90;;;1.40;;
73321;SDS011;61549;37.044;22.128;2023-03-17T09:34:16;1.33;;;0.90;;
73321;SDS011;61549;37.044;22.128;2023-03-17T09:36:42;4.18;;;2.60;;
73321;SDS011;61549;37.044;22.128;2023-03-17T09:39:08;11.25;;;7.82;;
73321;SDS011;61549;37.044;22.128;2023-03-17T09:44:25;1.10;;;1.00;;
73321;SDS011;61549;37.044;22.128;2023-03-17T09:49:50;1.67;;;1.50;;
73321;SDS011;61549;37.044;22.128;2023-03-17T09:52:30;1.58;;;1.10;;
73321;SDS011;61549;37.044;22.128;2023-03-17T09:54:58;3.28;;;1.83;;
73321;SDS011;61549;37.044;22.128;2023-03-17T09:57:34;5.35;;;2.70;;
73321;SDS011;61549;37.044;22.128;2023-03-17T10:00:11;3.83;;;2.58;;
73321;SDS011;61549;37.044;22.128;2023-03-17T10:02:47;5.28;;;3.50;;
73321;SDS011;61549;37.044;22.128;2023-03-17T10:05:23;5.53;;;3.80;;
73321;SDS011;61549;37.044;22.128;2023-03-17T10:10:55;5.88;;;4.28;;
73321;SDS011;61549;37.044;22.128;2023-03-17T10:16:09;4.88;;;3.90;;
73321;SDS011;61549;37.044;22.128;2023-03-17T10:21:10;20.90;;;13.25;;
73321;SDS011;61549;37.044;22.128;2023-03-17T10:23:41;12.05;;;7.45;;
73321;SDS011;61549;37.044;22.128;2023-03-17T10:26:13;5.53;;;4.00;;
73321;SDS011;61549;37.044;22.128;2023-03-17T10:31:14;5.07;;;2.97;;
73321;SDS011;61549;37.044;22.128;2023-03-17T10:33:42;4.13;;;3.22;;
73321;SDS011;61549;37.044;22.128;2023-03-17T10:36:13;3.92;;;2.92;;
73321;SDS011;61549;37.044;22.128;2023-03-17T10:38:41;4.60;;;2.92;;
73321;SDS011;61549;37.044;22.128;2023-03-17T10:41:16;4.13;;;2.75;;
73321;SDS011;61549;37.044;22.128;2023-03-17T10:43:43;4.57;;;3.00;;
73321;SDS011;61549;37.044;22.128;2023-03-17T10:46:21;3.92;;;2.78;;
73321;SDS011;61549;37.044;22.128;2023-03-17T10:48:53;4.03;;;2.75;;
73321;SDS011;61549;37.044;22.128;2023-03-17T10:51:29;5.47;;;3.13;;
73321;SDS011;61549;37.044;22.128;2023-03-17T10:54:00;4.82;;;3.40;;
73321;SDS011;61549;37.044;22.128;2023-03-17T10:56:33;5.25;;;3.47;;
73321;SDS011;61549;37.044;22.128;2023-03-17T10:59:04;5.40;;;2.88;;
73321;SDS011;61549;37.044;22.128;2023-03-17T11:01:38;3.95;;;2.50;;
73321;SDS011;61549;37.044;22.128;2023-03-17T11:09:24;5.45;;;3.63;;
73321;SDS011;61549;37.044;22.128;2023-03-17T11:12:06;5.30;;;3.03;;
73321;SDS011;61549;37.044;22.128;2023-03-17T11:14:53;3.50;;;2.85;;
73321;SDS011;61549;37.044;22.128;2023-03-17T11:20:15;4.10;;;3.00;;
73321;SDS011;61549;37.044;22.128;2023-03-17T11:22:47;5.40;;;3.40;;
73321;SDS011;61549;37.044;22.128;2023-03-17T11:25:37;4.13;;;3.10;;
73321;SDS011;61549;37.044;22.128;2023-03-17T11:36:34;6.35;;;2.95;;
73321;SDS011;61549;37.044;22.128;2023-03-17T11:39:26;3.47;;;2.40;;
73321;SDS011;61549;37.044;22.128;2023-03-17T11:47:45;4.70;;;2.85;;
73321;SDS011;61549;37.044;22.128;2023-03-17T11:53:22;6.45;;;3.83;;
73321;SDS011;61549;37.044;22.128;2023-03-17T11:58:41;4.03;;;3.22;;
73321;SDS011;61549;37.044;22.128;2023-03-17T12:01:13;3.95;;;2.80;;
73321;SDS011;61549;37.044;22.128;2023-03-17T12:06:42;4.28;;;3.05;;
73321;SDS011;61549;37.044;22.128;2023-03-17T12:11:55;4.90;;;2.20;;
73321;SDS011;61549;37.044;22.128;2023-03-17T12:14:26;2.67;;;2.10;;
73321;SDS011;61549;37.044;22.128;2023-03-17T12:17:25;4.40;;;2.50;;
73321;SDS011;61549;37.044;22.128;2023-03-17T12:34:45;2.03;;;1.50;;
73321;SDS011;61549;37.044;22.128;2023-03-17T12:37:25;3.08;;;2.10;;
73321;SDS011;61549;37.044;22.128;2023-03-17T12:40:02;3.35;;;1.80;;
73321;SDS011;61549;37.044;22.128;2023-03-17T12:54:04;3.45;;;2.70;;
73321;SDS011;61549;37.044;22.128;2023-03-17T12:56:42;3.03;;;2.35;;
73321;SDS011;61549;37.044;22.128;2023-03-17T12:59:17;2.88;;;1.88;;
73321;SDS011;61549;37.044;22.128;2023-03-17T13:01:56;4.75;;;2.00;;
73321;SDS011;61549;37.044;22.128;2023-03-17T13:04:31;2.05;;;1.70;;
73321;SDS011;61549;37.044;22.128;2023-03-17T13:07:16;1.90;;;1.70;;
73321;SDS011;61549;37.044;22.128;2023-03-17T13:12:54;1.13;;;0.90;;
73321;SDS011;61549;37.044;22.128;2023-03-17T13:20:43;0.80;;;0.80;;
73321;SDS011;61549;37.044;22.128;2023-03-17T13:23:36;1.63;;;1.20;;
73321;SDS011;61549;37.044;22.128;2023-03-17T13:26:05;1.67;;;0.90;;
73321;SDS011;61549;37.044;22.128;2023-03-17T13:33:44;0.90;;;0.80;;
73321;SDS011;61549;37.044;22.128;2023-03-17T13:39:05;1.30;;;1.02;;
73321;SDS011;61549;37.044;22.128;2023-03-17T13:42:30;0.70;;;0.70;;
73321;SDS011;61549;37.044;22.128;2023-03-17T13:45:22;1.23;;;1.00;;
73321;SDS011;61549;37.044;22.128;2023-03-17T13:53:42;1.48;;;0.90;;
73321;SDS011;61549;37.044;22.128;2023-03-17T13:56:24;1.10;;;0.90;;
73321;SDS011;61549;37.044;22.128;2023-03-17T13:59:13;2.35;;;1.10;;
73321;SDS011;61549;37.044;22.128;2023-03-17T14:04:26;2.25;;;1.60;;
73321;SDS011;61549;37.044;22.128;2023-03-17T14:07:07;2.78;;;2.20;;
73321;SDS011;61549;37.044;22.128;2023-03-17T14:09:42;1.25;;;1.10;;
73321;SDS011;61549;37.044;22.128;2023-03-17T14:12:14;2.13;;;1.20;;
73321;SDS011;61549;37.044;22.128;2023-03-17T14:14:49;4.20;;;2.33;;
73321;SDS011;61549;37.044;22.128;2023-03-17T14:17:33;2.35;;;1.20;;
73321;SDS011;61549;37.044;22.128;2023-03-17T14:22:44;0.95;;;0.85;;
73321;SDS011;61549;37.044;22.128;2023-03-17T14:27:42;1.00;;;0.90;;
73321;SDS011;61549;37.044;22.128;2023-03-17T14:30:19;1.45;;;1.00;;
73321;SDS011;61549;37.044;22.128;2023-03-17T14:35:38;1.40;;;0.80;;
73321;SDS011;61549;37.044;22.128;2023-03-17T14:38:17;1.45;;;1.20;;
73321;SDS011;61549;37.044;22.128;2023-03-17T14:40:46;0.90;;;0.90;;
73321;SDS011;61549;37.044;22.128;2023-03-17T14:43:13;1.35;;;0.90;;
73321;SDS011;61549;37.044;22.128;2023-03-17T14:45:48;2.60;;;0.70;;
73321;SDS011;61549;37.044;22.128;2023-03-17T14:48:26;1.52;;;1.20;;
73321;SDS011;61549;37.044;22.128;2023-03-17T14:51:02;2.17;;;0.90;;
73321;SDS011;61549;37.044;22.128;2023-03-17T14:53:32;1.20;;;1.05;;
73321;SDS011;61549;37.044;22.128;2023-03-17T14:56:00;2.25;;;1.10;;
73321;SDS011;61549;37.044;22.128;2023-03-17T14:58:33;1.88;;;1.10;;
73321;SDS011;61549;37.044;22.128;2023-03-17T15:01:17;2.38;;;1.50;;
73321;SDS011;61549;37.044;22.128;2023-03-17T15:03:53;1.75;;;1.17;;
73321;SDS011;61549;37.044;22.128;2023-03-17T15:06:29;3.08;;;0.90;;
73321;SDS011;61549;37.044;22.128;2023-03-17T15:11:45;1.05;;;0.95;;
73321;SDS011;61549;37.044;22.128;2023-03-17T15:14:16;1.98;;;1.10;;
73321;SDS011;61549;37.044;22.128;2023-03-17T15:16:50;1.85;;;1.00;;
73321;SDS011;61549;37.044;22.128;2023-03-17T15:22:03;1.35;;;0.70;;
73321;SDS011;61549;37.044;22.128;2023-03-17T15:24:44;1.00;;;0.90;;
73321;SDS011;61549;37.044;22.128;2023-03-17T15:27:22;1.10;;;1.00;;
73321;SDS011;61549;37.044;22.128;2023-03-17T15:29:48;2.58;;;1.20;;
73321;SDS011;61549;37.044;22.128;2023-03-17T15:32:17;1.50;;;1.20;;
73321;SDS011;61549;37.044;22.128;2023-03-17T15:34:46;2.22;;;1.35;;
73321;SDS011;61549;37.044;22.128;2023-03-17T15:37:15;0.98;;;0.77;;
73321;SDS011;61549;37.044;22.128;2023-03-17T15:39:43;2.28;;;1.23;;
73321;SDS011;61549;37.044;22.128;2023-03-17T15:42:09;1.70;;;1.10;;
73321;SDS011;61549;37.044;22.128;2023-03-17T15:44:37;2.13;;;1.30;;
73321;SDS011;61549;37.044;22.128;2023-03-17T15:47:03;0.90;;;0.75;;
73321;SDS011;61549;37.044;22.128;2023-03-17T15:49:30;2.15;;;1.08;;
73321;SDS011;61549;37.044;22.128;2023-03-17T15:51:56;1.33;;;1.20;;
73321;SDS011;61549;37.044;22.128;2023-03-17T15:54:22;1.35;;;1.10;;
73321;SDS011;61549;37.044;22.128;2023-03-17T15:56:48;1.67;;;1.33;;
73321;SDS011;61549;37.044;22.128;2023-03-17T15:59:14;1.05;;;0.90;;
73321;SDS011;61549;37.044;22.128;2023-03-17T16:01:39;1.25;;;1.15;;
73321;SDS011;61549;37.044;22.128;2023-03-17T16:04:05;1.95;;;1.00;;
73321;SDS011;61549;37.044;22.128;2023-03-17T16:06:33;2.45;;;1.20;;
73321;SDS011;61549;37.044;22.128;2023-03-17T16:09:00;1.17;;;1.02;;
73321;SDS011;61549;37.044;22.128;2023-03-17T16:11:27;1.67;;;1.30;;
73321;SDS011;61549;37.044;22.128;2023-03-17T16:13:57;3.30;;;2.20;;
73321;SDS011;61549;37.044;22.128;2023-03-17T16:16:37;1.90;;;1.65;;
73321;SDS011;61549;37.044;22.128;2023-03-17T16:19:06;3.03;;;1.85;;
73321;SDS011;61549;37.044;22.128;2023-03-17T16:21:37;2.20;;;1.70;;
73321;SDS011;61549;37.044;22.128;2023-03-17T16:24:03;1.85;;;1.60;;
73321;SDS011;61549;37.044;22.128;2023-03-17T16:26:30;2.10;;;1.40;;
73321;SDS011;61549;37.044;22.128;2023-03-17T16:28:55;1.65;;;1.40;;
73321;SDS011;61549;37.044;22.128;2023-03-17T16:33:49;1.40;;;1.30;;
73321;SDS011;61549;37.044;22.128;2023-03-17T16:36:18;1.60;;;1.40;;
73321;SDS011;61549;37.044;22.128;2023-03-17T16:38:45;1.77;;;1.63;;
73321;SDS011;61549;37.044;22.128;2023-03-17T16:41:45;5.93;;;3.72;;
73321;SDS011;61549;37.044;22.128;2023-03-17T16:44:03;2.30;;;1.83;;
73321;SDS011;61549;37.044;22.128;2023-03-17T16:46:32;2.05;;;1.85;;
73321;SDS011;61549;37.044;22.128;2023-03-17T16:48:59;1.63;;;1.52;;
73321;SDS011;61549;37.044;22.128;2023-03-17T16:51:25;1.60;;;1.50;;
73321;SDS011;61549;37.044;22.128;2023-03-17T16:53:51;2.13;;;1.67;;
73321;SDS011;61549;37.044;22.128;2023-03-17T16:56:18;1.80;;;1.50;;
73321;SDS011;61549;37.044;22.128;2023-03-17T16:58:46;1.48;;;1.38;;